Time;durP1;ratioP1;P1;durP2;ratioP2;P2;SDS_P1;SDS_P2;PMS_P1;PMS_P2;Temp;Humidity;BMP_temperature;BMP_pressure;BME280_temperature;BME280_humidity;BME280_pressure;Samples;Min_cycle;Max_cycle;Signal;HPM_P1;HPM_P2
2022/04/13 00:01:09;;;;;;;3.13;1.10;;;5.70;99.90;;;;;;6292516;22;20492;-92
2022/04/13 00:03:42;;;;;;;1.97;1.00;;;5.70;99.90;;;;;;6289254;22;20175;-92
2022/04/13 00:06:15;;;;;;;3.03;1.27;;;5.70;99.90;;;;;;6288967;22;20281;-91
2022/04/13 00:11:45;;;;;;;2.70;1.10;;;6.50;99.90;;;;;;6286196;22;20247;-91
2022/04/13 00:14:22;;;;;;;5.97;1.60;;;6.90;99.90;;;;;;6299210;22;20183;-90
2022/04/13 00:16:56;;;;;;;4.67;1.13;;;7.20;99.90;;;;;;6298858;22;20231;-90
2022/04/13 00:19:30;;;;;;;1.70;1.10;;;7.40;99.90;;;;;;6298074;22;20167;-91
2022/04/13 00:22:01;;;;;;;3.50;1.37;;;7.50;99.90;;;;;;6291598;22;20175;-92
2022/04/13 00:24:33;;;;;;;4.73;1.33;;;7.50;99.90;;;;;;6294176;22;20190;-91
2022/04/13 00:27:07;;;;;;;3.17;1.50;;;7.80;99.90;;;;;;6293471;22;20199;-92
2022/04/13 00:29:41;;;;;;;3.97;1.20;;;8.20;99.90;;;;;;6295443;22;20175;-93
2022/04/13 00:32:17;;;;;;;3.53;1.23;;;8.10;99.90;;;;;;6291583;22;20173;-92
2022/04/13 00:34:50;;;;;;;4.67;1.50;;;8.60;99.90;;;;;;6289139;22;20161;-93
2022/04/13 00:40:13;;;;;;;2.20;1.00;;;8.80;99.90;;;;;;6295015;22;20178;-92
2022/04/13 00:42:48;;;;;;;3.37;1.10;;;9.10;99.90;;;;;;6289646;22;20261;-92
2022/04/13 00:45:22;;;;;;;3.93;1.40;;;8.80;99.90;;;;;;6294385;22;20171;-91
2022/04/13 00:47:58;;;;;;;3.13;1.00;;;8.10;99.90;;;;;;6283584;22;20217;-93
2022/04/13 00:50:30;;;;;;;2.93;1.33;;;7.90;99.90;;;;;;6283990;22;20193;-91
2022/04/13 00:53:02;;;;;;;3.33;0.90;;;8.00;99.90;;;;;;6296339;22;20177;-91
2022/04/13 00:55:37;;;;;;;1.97;0.90;;;8.30;99.90;;;;;;6293530;22;20178;-92
2022/04/13 00:58:13;;;;;;;2.97;1.07;;;8.40;99.90;;;;;;6298089;22;20170;-92
2022/04/13 01:00:48;;;;;;;2.37;1.17;;;8.60;99.90;;;;;;6305456;22;20178;-91
2022/04/13 01:06:00;;;;;;;2.00;0.87;;;8.40;99.90;;;;;;6304402;22;20230;-91
2022/04/13 01:08:36;;;;;;;2.37;1.10;;;8.30;99.90;;;;;;6298155;22;20191;-91
2022/04/13 01:11:09;;;;;;;3.27;1.30;;;8.10;99.90;;;;;;6299007;22;20175;-90
2022/04/13 01:13:40;;;;;;;1.53;0.87;;;8.00;99.90;;;;;;6294983;22;20224;-91
2022/04/13 01:16:16;;;;;;;3.73;1.30;;;7.80;99.90;;;;;;6290946;22;20178;-91
2022/04/13 01:18:48;;;;;;;2.20;1.00;;;7.40;99.90;;;;;;6297483;22;20194;-91
2022/04/13 01:24:42;;;;;;;3.27;1.10;;;7.10;99.90;;;;;;6296716;22;20199;-90
2022/04/13 01:36:11;;;;;;;2.83;0.80;;;7.10;99.90;;;;;;6298476;22;20177;-91
2022/04/13 01:41:34;;;;;;;5.00;1.40;;;6.90;99.90;;;;;;6297082;22;20177;-92
2022/04/13 01:44:07;;;;;;;2.20;1.40;;;6.80;99.90;;;;;;6297523;22;20174;-91
2022/04/13 01:46:39;;;;;;;4.87;1.30;;;6.80;99.90;;;;;;6297646;22;20187;-92
2022/04/13 01:49:11;;;;;;;4.07;1.63;;;6.70;99.90;;;;;;6295291;22;20209;-91
2022/04/13 01:51:45;;;;;;;2.80;0.80;;;6.70;99.90;;;;;;6294811;22;20251;-91
2022/04/13 01:54:16;;;;;;;1.40;0.90;;;6.60;99.90;;;;;;6286356;22;20175;-91
2022/04/13 01:56:52;;;;;;;2.53;0.97;;;6.60;99.90;;;;;;6300203;22;20174;-91
2022/04/13 02:04:55;;;;;;;1.77;1.13;;;6.40;99.90;;;;;;6296245;22;20196;-89
2022/04/13 02:07:26;;;;;;;4.30;1.50;;;6.30;99.90;;;;;;6282606;22;20536;-92
2022/04/13 02:10:01;;;;;;;2.67;1.20;;;6.20;99.90;;;;;;6294620;22;20173;-91
2022/04/13 02:12:44;;;;;;;1.70;1.20;;;6.20;99.90;;;;;;6298843;22;20164;-91
2022/04/13 02:17:57;;;;;;;3.50;1.30;;;6.00;99.90;;;;;;6274410;22;20240;-90
2022/04/13 02:23:03;;;;;;;4.67;1.67;;;6.00;99.90;;;;;;6294846;22;20189;-89
2022/04/13 02:25:39;;;;;;;3.43;1.20;;;5.90;99.90;;;;;;6297306;22;20172;-90
2022/04/13 02:28:15;;;;;;;4.77;2.03;;;5.80;99.90;;;;;;6297098;22;20204;-90
2022/04/13 02:30:46;;;;;;;5.50;1.80;;;5.80;99.90;;;;;;6297873;22;20185;-91
2022/04/13 02:33:26;;;;;;;6.63;2.70;;;5.70;99.90;;;;;;6296702;22;20683;-91
2022/04/13 02:36:03;;;;;;;4.13;2.37;;;5.70;99.90;;;;;;6297071;22;20163;-91
2022/04/13 02:38:37;;;;;;;6.03;2.20;;;5.70;99.90;;;;;;6297149;22;20179;-91
2022/04/13 02:41:08;;;;;;;3.17;2.33;;;5.70;99.90;;;;;;6296616;22;20167;-91
2022/04/13 02:43:45;;;;;;;4.07;1.90;;;5.60;99.90;;;;;;6270534;22;20175;-90
2022/04/13 02:46:17;;;;;;;3.70;1.80;;;5.50;99.90;;;;;;6296034;22;20189;-91
2022/04/13 02:48:59;;;;;;;3.43;1.30;;;5.50;99.90;;;;;;6292810;22;20276;-91
2022/04/13 02:51:33;;;;;;;3.10;1.27;;;5.60;99.90;;;;;;6284509;22;20246;-92
2022/04/13 02:54:07;;;;;;;2.67;1.50;;;5.60;99.90;;;;;;6292989;22;20175;-92
2022/04/13 02:56:39;;;;;;;3.30;1.47;;;5.50;99.90;;;;;;6293879;22;20179;-91
2022/04/13 02:59:14;;;;;;;7.60;1.80;;;5.40;99.90;;;;;;6293978;22;20182;-90
2022/04/13 03:01:46;;;;;;;3.50;1.20;;;5.40;99.90;;;;;;6295488;22;20186;-90
2022/04/13 03:04:18;;;;;;;2.47;1.20;;;5.40;99.90;;;;;;6294991;22;20234;-91
2022/04/13 03:06:51;;;;;;;2.43;1.00;;;5.40;99.90;;;;;;6270958;22;20163;-93
2022/04/13 03:09:27;;;;;;;5.40;1.50;;;5.40;99.90;;;;;;6292525;22;20206;-91
2022/04/13 03:11:59;;;;;;;5.57;1.87;;;5.40;99.90;;;;;;6296292;22;20163;-91
2022/04/13 03:19:43;;;;;;;4.17;0.80;;;5.20;99.90;;;;;;6304189;22;20245;-91
2022/04/13 03:22:16;;;;;;;1.27;0.87;;;5.00;99.90;;;;;;6304630;22;20187;-90
2022/04/13 03:43:53;;;;;;;4.03;1.07;;;4.50;99.90;;;;;;6301007;22;20216;-91
2022/04/13 03:46:26;;;;;;;3.10;1.10;;;4.40;99.90;;;;;;6362841;22;20154;-90
2022/04/13 03:48:58;;;;;;;0.93;0.83;;;4.50;99.90;;;;;;6362916;22;20213;-91
2022/04/13 03:51:31;;;;;;;2.90;1.40;;;4.50;99.90;;;;;;6360728;22;20158;-90
2022/04/13 03:59:48;;;;;;;2.27;1.23;;;4.40;99.90;;;;;;6366513;22;20190;-91
2022/04/13 04:02:21;;;;;;;4.43;1.00;;;4.40;99.90;;;;;;6365916;22;20159;-91
2022/04/13 04:04:53;;;;;;;2.57;1.00;;;4.50;99.90;;;;;;6367106;22;20159;-90
2022/04/13 04:07:26;;;;;;;3.73;1.43;;;4.60;99.90;;;;;;6367866;22;20193;-91
2022/04/13 04:12:42;;;;;;;2.47;1.40;;;4.50;99.90;;;;;;6368736;22;20225;-89
2022/04/13 04:15:16;;;;;;;4.47;1.23;;;4.60;99.90;;;;;;6323846;22;20195;-91
2022/04/13 04:20:46;;;;;;;3.33;1.17;;;4.60;99.90;;;;;;6368145;22;20177;-90
2022/04/13 04:26:18;;;;;;;5.03;1.63;;;4.60;99.90;;;;;;6324904;22;20189;-91
2022/04/13 04:34:45;;;;;;;4.40;1.30;;;4.50;99.90;;;;;;6360651;22;20178;-89
2022/04/13 04:37:29;;;;;;;4.13;1.67;;;4.50;99.90;;;;;;6364227;22;20172;-90
2022/04/13 04:40:20;;;;;;;6.47;1.80;;;4.50;99.90;;;;;;6301651;22;20274;-89
2022/04/13 04:52:02;;;;;;;5.03;2.10;;;4.60;99.90;;;;;;6365608;22;20166;-90
2022/04/13 04:54:54;;;;;;;4.63;1.67;;;4.60;99.90;;;;;;6359378;22;20177;-89
2022/04/13 04:57:29;;;;;;;4.30;1.43;;;4.60;99.90;;;;;;6363600;22;20176;-92
2022/04/13 05:00:14;;;;;;;4.70;1.70;;;4.50;99.90;;;;;;6361248;22;20178;-90
2022/04/13 05:05:59;;;;;;;4.93;1.70;;;4.60;99.90;;;;;;6362049;22;20173;-89
2022/04/13 05:08:36;;;;;;;4.70;1.40;;;4.60;99.90;;;;;;6363659;22;20162;-89
2022/04/13 05:11:22;;;;;;;5.13;1.40;;;4.60;99.90;;;;;;6362445;22;20174;-89
2022/04/13 05:14:34;;;;;;;2.43;1.50;;;4.50;99.90;;;;;;6361566;22;20170;-90
2022/04/13 05:23:51;;;;;;;5.03;1.40;;;4.50;99.90;;;;;;6368260;22;20181;-91
2022/04/13 05:32:33;;;;;;;4.63;1.00;;;4.50;99.90;;;;;;6363398;22;20161;-92
2022/04/13 05:35:21;;;;;;;1.70;1.30;;;4.40;99.90;;;;;;6361700;22;20173;-89
2022/04/13 05:38:18;;;;;;;2.27;0.80;;;4.40;99.90;;;;;;6365869;22;20171;-90
2022/04/13 05:46:48;;;;;;;2.80;1.00;;;4.40;99.90;;;;;;6365596;22;20259;-91
2022/04/13 05:50:01;;;;;;;1.87;0.90;;;4.40;99.90;;;;;;6364277;22;20223;-91
2022/04/13 06:07:50;;;;;;;2.87;1.10;;;3.90;99.90;;;;;;6354761;22;20181;-89
2022/04/13 06:11:13;;;;;;;3.97;1.37;;;3.90;99.90;;;;;;6362694;22;20224;-91
2022/04/13 06:17:06;;;;;;;2.50;1.13;;;3.80;99.90;;;;;;6362504;22;20150;-90
2022/04/13 06:19:47;;;;;;;2.27;1.20;;;3.80;99.90;;;;;;6359105;22;20228;-89
2022/04/13 06:22:42;;;;;;;2.20;1.07;;;3.80;99.90;;;;;;6362183;22;20174;-91
2022/04/13 06:25:35;;;;;;;2.10;1.10;;;3.80;99.90;;;;;;6363622;22;20177;-90
2022/04/13 06:34:50;;;;;;;3.53;1.07;;;3.90;99.90;;;;;;6362425;22;20181;-91
2022/04/13 06:37:40;;;;;;;3.07;1.10;;;4.00;99.90;;;;;;6362030;22;20229;-90
2022/04/13 06:41:00;;;;;;;1.90;1.10;;;4.00;99.90;;;;;;6357586;22;20188;-91
2022/04/13 06:55:34;;;;;;;1.60;1.03;;;3.60;99.90;;;;;;6357848;22;20173;-90
2022/04/13 07:01:08;;;;;;;4.40;2.20;;;3.40;99.90;;;;;;6356540;22;20181;-90
2022/04/13 07:06:58;;;;;;;6.43;3.20;;;3.30;99.90;;;;;;6351037;22;20162;-90
2022/04/13 07:09:30;;;;;;;7.17;3.43;;;3.30;99.90;;;;;;6344482;22;20201;-91
2022/04/13 07:12:02;;;;;;;10.00;4.23;;;3.30;99.90;;;;;;6345145;22;20239;-90
2022/04/13 07:14:34;;;;;;;11.47;4.43;;;3.30;99.90;;;;;;6344293;22;20204;-91
2022/04/13 07:17:05;;;;;;;14.33;4.97;;;3.30;99.90;;;;;;6344920;22;20587;-91
2022/04/13 07:19:36;;;;;;;6.90;3.77;;;3.20;99.90;;;;;;6344416;22;20173;-90
2022/04/13 07:22:10;;;;;;;6.57;3.10;;;3.20;99.90;;;;;;6344913;22;20174;-91
2022/04/13 07:24:43;;;;;;;5.90;2.83;;;3.20;99.90;;;;;;6345329;22;20187;-92
2022/04/13 07:27:15;;;;;;;5.57;2.77;;;3.10;99.90;;;;;;6344649;22;20192;-92
2022/04/13 07:29:48;;;;;;;5.00;2.50;;;3.10;99.90;;;;;;6344811;22;20220;-91
2022/04/13 07:32:28;;;;;;;3.23;2.50;;;3.10;99.90;;;;;;6357696;22;20174;-91
2022/04/13 07:35:03;;;;;;;3.73;2.40;;;3.00;99.90;;;;;;6353996;22;20869;-91
2022/04/13 07:37:39;;;;;;;3.83;2.27;;;2.90;99.90;;;;;;6343473;22;20181;-92
2022/04/13 07:40:12;;;;;;;2.80;2.33;;;2.80;99.90;;;;;;6345267;22;20632;-91
2022/04/13 07:42:44;;;;;;;5.00;2.70;;;2.80;99.90;;;;;;6344233;22;20200;-89
2022/04/13 07:45:15;;;;;;;4.97;2.33;;;2.70;99.90;;;;;;6345928;22;20259;-91
2022/04/13 07:47:47;;;;;;;5.23;2.30;;;2.60;99.90;;;;;;6345502;22;20169;-90
2022/04/13 07:50:18;;;;;;;4.97;2.47;;;2.50;99.90;;;;;;6357878;22;20188;-93
2022/04/13 07:52:51;;;;;;;3.33;2.60;;;2.50;99.90;;;;;;6365907;22;20191;-91
2022/04/13 07:55:23;;;;;;;3.50;2.30;;;2.50;99.90;;;;;;6364688;22;20169;-92
2022/04/13 07:57:54;;;;;;;4.37;2.63;;;2.40;99.90;;;;;;6359163;22;20173;-92
2022/04/13 08:00:26;;;;;;;4.43;2.27;;;2.40;99.90;;;;;;6347185;22;20177;-92
2022/04/13 08:02:57;;;;;;;4.63;2.77;;;2.30;99.90;;;;;;6345674;22;20173;-90
2022/04/13 08:05:30;;;;;;;3.67;2.53;;;2.20;99.90;;;;;;6343193;22;20207;-90
2022/04/13 08:08:05;;;;;;;3.20;2.27;;;2.20;99.90;;;;;;6343516;22;20168;-92
2022/04/13 08:10:37;;;;;;;4.27;2.60;;;2.20;99.90;;;;;;6344445;22;20192;-91
2022/04/13 08:13:08;;;;;;;2.40;1.90;;;2.20;99.90;;;;;;6343737;22;20181;-91
2022/04/13 08:15:54;;;;;;;3.07;2.00;;;2.10;99.90;;;;;;6344471;22;20176;-91
2022/04/13 08:18:26;;;;;;;4.03;2.17;;;1.90;99.90;;;;;;6344170;22;20176;-90
2022/04/13 08:20:59;;;;;;;3.47;2.07;;;1.80;99.90;;;;;;6344434;22;20177;-91
2022/04/13 08:23:32;;;;;;;2.57;1.67;;;1.80;99.90;;;;;;6345490;22;20173;-92
2022/04/13 08:26:03;;;;;;;4.10;2.00;;;1.80;99.90;;;;;;6345059;22;20212;-92
2022/04/13 08:28:35;;;;;;;3.53;1.80;;;1.80;99.90;;;;;;6344184;22;20196;-91
2022/04/13 08:31:09;;;;;;;2.77;1.43;;;1.80;99.90;;;;;;6347526;22;20244;-91
2022/04/13 08:33:42;;;;;;;2.87;1.47;;;1.80;99.90;;;;;;6363366;22;20169;-92
2022/04/13 08:36:14;;;;;;;2.03;1.50;;;1.70;99.90;;;;;;6363459;22;20191;-91
2022/04/13 08:38:50;;;;;;;4.33;2.33;;;1.70;99.90;;;;;;6356205;22;20173;-92
2022/04/13 08:41:29;;;;;;;3.43;2.20;;;1.70;99.90;;;;;;6349022;22;20169;-92
2022/04/13 08:44:06;;;;;;;3.90;2.27;;;1.70;99.90;;;;;;6358076;22;20184;-91
2022/04/13 08:46:41;;;;;;;3.60;2.20;;;1.70;99.90;;;;;;6354114;22;20173;-92
2022/04/13 08:49:14;;;;;;;7.60;4.50;;;1.80;99.90;;;;;;6343403;22;20205;-91
2022/04/13 08:52:05;;;;;;;7.47;5.03;;;1.80;99.90;;;;;;6346516;22;20228;-91
2022/04/13 08:54:48;;;;;;;9.77;4.97;;;1.90;99.90;;;;;;6319264;22;20181;-91
2022/04/13 08:57:23;;;;;;;7.00;3.80;;;1.90;99.90;;;;;;6344705;22;20174;-92
2022/04/13 09:00:10;;;;;;;4.73;3.13;;;1.90;99.90;;;;;;6346410;22;20189;-92
2022/04/13 09:03:13;;;;;;;5.57;2.63;;;1.90;99.90;;;;;;6347396;22;20200;-91
2022/04/13 09:05:53;;;;;;;4.93;1.67;;;1.90;99.90;;;;;;6346981;22;20174;-92
2022/04/13 09:08:25;;;;;;;4.07;1.73;;;1.90;99.90;;;;;;6345749;22;20210;-91
2022/04/13 09:11:00;;;;;;;4.37;1.70;;;1.80;99.90;;;;;;6347145;22;20189;-91
2022/04/13 09:13:36;;;;;;;2.23;1.40;;;1.80;99.90;;;;;;6348501;22;20173;-92
2022/04/13 09:16:08;;;;;;;3.37;1.10;;;1.80;99.90;;;;;;6361313;22;20169;-89
2022/04/13 09:18:39;;;;;;;1.80;0.90;;;1.80;99.90;;;;;;6359010;22;20201;-92
2022/04/13 09:21:11;;;;;;;3.53;0.93;;;1.80;99.90;;;;;;6357502;22;20173;-92
2022/04/13 09:23:43;;;;;;;4.03;1.13;;;1.80;99.90;;;;;;6354487;22;20177;-93
2022/04/13 09:26:16;;;;;;;2.23;1.20;;;1.70;99.90;;;;;;6347966;22;20228;-90
2022/04/13 09:28:47;;;;;;;3.47;1.40;;;1.70;99.90;;;;;;6346265;22;20174;-91
2022/04/13 09:31:20;;;;;;;2.63;1.00;;;1.80;99.90;;;;;;6346915;22;20209;-91
2022/04/13 09:33:51;;;;;;;1.80;1.20;;;1.70;99.90;;;;;;6356064;22;20196;-92
2022/04/13 09:36:24;;;;;;;1.63;0.97;;;1.60;99.90;;;;;;6366014;22;20153;-91
2022/04/13 09:38:56;;;;;;;3.73;1.10;;;1.60;99.90;;;;;;6351929;22;20611;-91
2022/04/13 09:41:38;;;;;;;3.93;1.10;;;1.60;99.90;;;;;;6364260;22;20177;-92
2022/04/13 09:46:53;;;;;;;1.67;1.00;;;1.60;99.90;;;;;;6346440;22;20746;-92
2022/04/13 09:49:24;;;;;;;1.83;1.00;;;1.60;99.90;;;;;;6348883;22;20597;-92
2022/04/13 09:51:58;;;;;;;2.57;1.17;;;1.50;99.90;;;;;;6345816;22;20632;-91
2022/04/13 09:54:34;;;;;;;1.30;1.20;;;1.60;99.90;;;;;;6345295;22;20181;-92
2022/04/13 09:57:08;;;;;;;2.93;1.30;;;1.50;99.90;;;;;;6344695;22;20511;-95
2022/04/13 09:59:41;;;;;;;2.33;0.93;;;1.40;99.90;;;;;;6345155;22;20173;-91
2022/04/13 10:02:12;;;;;;;3.00;1.17;;;1.30;99.90;;;;;;6345388;22;20173;-91
2022/04/13 10:04:44;;;;;;;1.10;1.00;;;1.30;99.90;;;;;;6346680;22;20177;-91
2022/04/13 10:07:19;;;;;;;1.90;1.30;;;1.40;99.90;;;;;;6362750;22;20166;-93
2022/04/13 10:09:51;;;;;;;1.37;1.10;;;1.50;99.90;;;;;;6363948;22;20173;-93
2022/04/13 10:12:25;;;;;;;1.60;1.00;;;1.50;99.90;;;;;;6353024;22;20516;-92
2022/04/13 10:15:09;;;;;;;2.90;1.00;;;1.50;99.90;;;;;;6346399;22;20201;-92
2022/04/13 10:17:42;;;;;;;2.80;1.00;;;1.50;99.90;;;;;;6345478;22;20213;-91
2022/04/13 10:20:13;;;;;;;1.17;1.07;;;1.50;99.90;;;;;;6346163;22;20178;-91
2022/04/13 10:23:05;;;;;;;2.53;0.90;;;1.50;99.90;;;;;;6345572;22;20198;-92
2022/04/13 10:25:36;;;;;;;2.20;0.90;;;1.50;99.90;;;;;;6340011;22;20185;-92
2022/04/13 10:28:12;;;;;;;1.07;0.80;;;1.50;99.90;;;;;;6344552;22;20685;-91
2022/04/13 10:30:44;;;;;;;2.80;1.10;;;1.50;99.90;;;;;;6342718;22;20321;-92
2022/04/13 10:33:17;;;;;;;2.17;1.10;;;1.50;99.90;;;;;;6345907;22;20180;-89
2022/04/13 10:35:49;;;;;;;2.27;1.10;;;1.50;99.90;;;;;;6352402;22;20170;-91
2022/04/13 10:38:20;;;;;;;1.83;1.20;;;1.50;99.90;;;;;;6347679;22;20177;-91
2022/04/13 10:40:53;;;;;;;2.43;1.20;;;1.50;99.90;;;;;;6345869;22;20173;-91
2022/04/13 10:43:29;;;;;;;2.97;1.40;;;1.50;99.90;;;;;;6345504;22;20178;-92
2022/04/13 10:46:01;;;;;;;1.40;1.30;;;1.50;99.90;;;;;;6343582;22;20227;-91
2022/04/13 10:48:39;;;;;;;3.37;1.57;;;1.40;99.90;;;;;;6343409;22;20189;-91
2022/04/13 10:51:14;;;;;;;3.50;1.63;;;1.40;99.90;;;;;;6343821;22;20631;-92
2022/04/13 10:53:53;;;;;;;2.70;1.23;;;1.40;99.90;;;;;;6345225;22;20172;-91
2022/04/13 10:56:30;;;;;;;2.67;1.23;;;1.40;99.90;;;;;;6351367;22;20182;-91
2022/04/13 10:59:12;;;;;;;3.17;1.23;;;1.40;99.90;;;;;;6347552;22;20189;-89
2022/04/13 11:01:48;;;;;;;2.97;1.33;;;1.30;99.90;;;;;;6346177;22;20181;-89
2022/04/13 11:04:19;;;;;;;2.03;1.00;;;1.30;99.90;;;;;;6345548;22;20173;-91
2022/04/13 11:06:51;;;;;;;1.80;1.17;;;1.20;99.90;;;;;;6344422;22;20174;-91
2022/04/13 11:09:28;;;;;;;2.00;0.80;;;1.20;99.90;;;;;;6342513;22;20639;-91
2022/04/13 11:12:03;;;;;;;2.57;1.30;;;1.20;99.90;;;;;;6343410;22;20507;-92
2022/04/13 11:14:51;;;;;;;2.30;1.50;;;1.20;99.90;;;;;;6343730;22;20181;-92
2022/04/13 11:17:28;;;;;;;1.90;1.10;;;1.20;99.90;;;;;;6341563;22;20227;-92
2022/04/13 11:20:20;;;;;;;1.97;1.27;;;1.30;99.90;;;;;;6344346;22;20561;-92
2022/04/13 11:23:15;;;;;;;2.17;1.40;;;1.40;99.90;;;;;;6344542;22;20169;-92
2022/04/13 11:25:50;;;;;;;2.90;1.40;;;1.40;99.90;;;;;;6343741;22;20247;-92
2022/04/13 11:28:30;;;;;;;1.20;1.10;;;1.40;99.90;;;;;;6343790;22;20216;-91
2022/04/13 11:31:05;;;;;;;2.00;1.20;;;1.40;99.90;;;;;;6342837;22;20491;-91
2022/04/13 11:34:00;;;;;;;1.20;1.10;;;1.40;99.90;;;;;;6345132;22;20173;-91
2022/04/13 11:36:32;;;;;;;3.73;1.17;;;1.30;99.90;;;;;;6353830;22;20173;-90
2022/04/13 11:39:51;;;;;;;2.63;1.20;;;1.30;99.90;;;;;;6345336;22;20177;-93
2022/04/13 11:42:55;;;;;;;1.53;1.27;;;1.30;99.90;;;;;;6345996;22;20177;-92
2022/04/13 11:45:33;;;;;;;1.67;1.20;;;1.40;99.90;;;;;;6249663;23;20207;-91
2022/04/13 11:48:08;;;;;;;1.53;1.30;;;1.40;99.90;;;;;;6248688;23;20167;-92
2022/04/13 11:50:41;;;;;;;1.20;1.10;;;1.40;99.90;;;;;;6299801;22;20188;-91
2022/04/13 11:53:16;;;;;;;1.53;1.40;;;1.40;99.90;;;;;;6343912;22;20201;-92
2022/04/13 11:55:50;;;;;;;2.73;1.50;;;1.40;99.90;;;;;;6344617;22;20181;-92
2022/04/13 11:58:25;;;;;;;1.37;1.27;;;1.50;99.90;;;;;;6343204;22;20199;-92
2022/04/13 12:01:00;;;;;;;1.80;1.30;;;1.50;99.90;;;;;;6343410;22;20199;-93
2022/04/13 12:03:35;;;;;;;2.47;1.47;;;1.50;99.90;;;;;;6343888;22;20169;-92
2022/04/13 12:06:12;;;;;;;2.27;1.23;;;1.50;99.90;;;;;;6344165;22;20511;-90
2022/04/13 12:08:45;;;;;;;2.13;1.40;;;1.50;99.90;;;;;;6342965;22;20264;-91
2022/04/13 12:11:19;;;;;;;2.13;1.63;;;1.50;99.90;;;;;;6343901;22;20196;-91
2022/04/13 12:13:53;;;;;;;2.93;1.50;;;1.40;99.90;;;;;;6342645;22;20263;-92
2022/04/13 12:16:27;;;;;;;2.70;1.40;;;1.40;99.90;;;;;;6343742;22;20189;-92
2022/04/13 12:19:03;;;;;;;2.30;1.40;;;1.40;99.90;;;;;;6343252;22;20179;-92
2022/04/13 12:21:36;;;;;;;2.03;1.30;;;1.30;99.90;;;;;;6352081;22;20187;-92
2022/04/13 12:24:09;;;;;;;3.10;1.53;;;1.20;99.90;;;;;;6364940;22;20185;-91
2022/04/13 12:26:43;;;;;;;2.80;1.50;;;1.20;99.90;;;;;;6366919;22;20170;-92
2022/04/13 12:29:15;;;;;;;2.20;1.77;;;1.20;99.90;;;;;;6350276;22;20173;-92
2022/04/13 12:31:48;;;;;;;2.60;1.90;;;1.10;99.90;;;;;;6345634;22;20166;-92
2022/04/13 12:34:24;;;;;;;2.90;1.67;;;1.10;99.90;;;;;;6347104;22;20503;-92
2022/04/13 12:37:00;;;;;;;2.10;1.60;;;1.00;99.90;;;;;;6345931;22;20177;-93
2022/04/13 12:39:33;;;;;;;2.43;1.87;;;1.00;99.90;;;;;;6348047;22;20180;-92
2022/04/13 12:42:05;;;;;;;4.10;1.83;;;0.90;99.90;;;;;;6349414;22;20166;-92
2022/04/13 12:44:40;;;;;;;2.90;1.90;;;0.90;99.90;;;;;;6346468;22;20166;-92
2022/04/13 12:47:12;;;;;;;3.23;1.50;;;0.90;99.90;;;;;;6349395;22;20211;-95
2022/04/13 12:50:02;;;;;;;3.83;1.70;;;0.90;99.90;;;;;;6345394;22;20165;-92
2022/04/13 12:52:34;;;;;;;1.90;1.70;;;0.90;99.90;;;;;;6345203;22;20194;-91
2022/04/13 12:55:07;;;;;;;2.57;1.93;;;0.90;99.90;;;;;;6345027;22;20174;-91
2022/04/13 12:57:38;;;;;;;5.97;1.77;;;0.80;99.90;;;;;;6343809;22;20227;-93
2022/04/13 13:00:11;;;;;;;2.37;1.73;;;0.80;99.90;;;;;;6345550;22;20196;-92
2022/04/13 13:02:43;;;;;;;2.50;1.60;;;0.90;99.90;;;;;;6344639;22;20178;-92
2022/04/13 13:05:17;;;;;;;3.10;1.60;;;1.00;99.90;;;;;;6344857;22;20181;-91
2022/04/13 13:07:48;;;;;;;3.10;2.07;;;1.00;99.90;;;;;;6341603;22;20174;-92
2022/04/13 13:10:20;;;;;;;3.60;2.07;;;1.00;99.90;;;;;;6344033;22;20199;-91
2022/04/13 13:13:12;;;;;;;2.57;1.83;;;1.10;99.90;;;;;;6344035;22;20651;-91
2022/04/13 13:15:43;;;;;;;2.27;1.90;;;1.00;99.90;;;;;;6344720;22;20511;-92
2022/04/13 13:18:19;;;;;;;3.50;2.23;;;1.00;99.90;;;;;;6343871;22;20254;-90
2022/04/13 13:21:00;;;;;;;2.43;1.80;;;1.10;99.90;;;;;;6343951;22;20540;-91
2022/04/13 13:23:33;;;;;;;4.50;2.10;;;1.20;99.90;;;;;;6344269;22;20184;-92
2022/04/13 13:26:05;;;;;;;2.93;2.00;;;1.20;99.90;;;;;;6345232;22;20189;-91
2022/04/13 13:28:40;;;;;;;2.87;1.90;;;1.20;99.90;;;;;;6343763;22;20181;-90
2022/04/13 13:31:12;;;;;;;2.70;2.20;;;1.20;99.90;;;;;;6349464;22;20174;-91
2022/04/13 13:34:02;;;;;;;2.50;1.70;;;1.30;99.90;;;;;;6346404;22;20584;-92
2022/04/13 13:36:36;;;;;;;2.63;1.97;;;1.30;99.90;;;;;;6345137;22;20174;-92
2022/04/13 13:39:07;;;;;;;3.10;1.60;;;1.40;99.90;;;;;;6344637;22;20197;-91
2022/04/13 13:41:39;;;;;;;4.97;2.30;;;1.40;99.90;;;;;;6343306;22;20189;-92
2022/04/13 13:44:25;;;;;;;2.50;1.83;;;1.50;99.90;;;;;;6344286;22;20181;-92
2022/04/13 13:46:57;;;;;;;2.73;2.00;;;1.50;99.90;;;;;;6344223;22;20231;-92
2022/04/13 13:49:29;;;;;;;3.27;2.03;;;1.40;99.90;;;;;;6344119;22;20241;-90
2022/04/13 13:52:01;;;;;;;2.70;2.03;;;1.40;99.90;;;;;;6345421;22;20174;-90
2022/04/13 13:54:35;;;;;;;4.00;2.40;;;1.40;99.90;;;;;;6344741;22;20224;-91
2022/04/13 13:57:06;;;;;;;2.90;1.97;;;1.40;99.90;;;;;;6343962;22;20616;-92
2022/04/13 13:59:38;;;;;;;3.87;2.00;;;1.50;99.90;;;;;;6344385;22;20585;-91
2022/04/13 14:02:13;;;;;;;2.00;1.70;;;1.50;99.90;;;;;;6343535;22;20178;-91
2022/04/13 14:04:50;;;;;;;2.20;1.77;;;1.40;99.90;;;;;;6343841;22;20172;-92
2022/04/13 14:07:34;;;;;;;2.57;1.73;;;1.50;99.90;;;;;;6345586;22;20201;-92
2022/04/13 14:10:08;;;;;;;3.77;1.80;;;1.60;99.90;;;;;;6345522;22;20495;-90
2022/04/13 14:12:43;;;;;;;1.97;1.27;;;1.60;99.90;;;;;;6346037;22;20215;-91
2022/04/13 14:15:15;;;;;;;2.77;1.50;;;1.60;99.90;;;;;;6346747;22;20163;-90
2022/04/13 14:17:47;;;;;;;1.90;1.37;;;1.60;99.90;;;;;;6344316;22;20162;-92
2022/04/13 14:20:21;;;;;;;1.97;1.30;;;1.70;99.90;;;;;;6352840;22;20169;-92
2022/04/13 14:22:59;;;;;;;1.57;1.47;;;1.70;99.90;;;;;;6346819;22;20170;-92
2022/04/13 14:25:32;;;;;;;2.47;1.53;;;1.80;99.90;;;;;;6345209;22;20222;-92
2022/04/13 14:28:04;;;;;;;1.37;1.17;;;1.80;99.90;;;;;;6345963;22;20162;-92
2022/04/13 14:30:36;;;;;;;2.23;1.83;;;1.80;99.90;;;;;;6348280;22;20223;-88
2022/04/13 14:33:14;;;;;;;1.70;1.50;;;1.90;99.90;;;;;;6350437;22;20189;-91
2022/04/13 14:35:45;;;;;;;1.70;1.30;;;1.90;99.90;;;;;;6345482;22;20203;-91
2022/04/13 14:38:19;;;;;;;1.93;1.50;;;2.00;99.90;;;;;;6354071;22;20179;-89
2022/04/13 14:40:51;;;;;;;3.50;1.40;;;2.00;99.90;;;;;;6366921;22;20191;-91
2022/04/13 14:43:22;;;;;;;2.07;1.87;;;2.10;99.90;;;;;;6366567;22;20172;-90
2022/04/13 14:45:53;;;;;;;1.40;1.07;;;2.20;99.90;;;;;;6354381;22;20224;-90
2022/04/13 14:48:25;;;;;;;1.80;1.20;;;2.30;99.90;;;;;;6360249;22;20164;-91
2022/04/13 14:50:58;;;;;;;2.33;1.40;;;2.40;99.90;;;;;;6349949;22;20632;-91
2022/04/13 14:53:34;;;;;;;2.57;1.37;;;2.50;99.90;;;;;;6356534;22;20193;-91
2022/04/13 14:56:08;;;;;;;1.90;1.37;;;2.60;99.90;;;;;;6348973;22;20196;-92
2022/04/13 15:01:24;;;;;;;1.20;1.10;;;2.70;99.90;;;;;;6358361;22;20192;-90
2022/04/13 15:03:55;;;;;;;2.50;1.43;;;2.70;99.90;;;;;;6358407;22;20177;-91
2022/04/13 15:12:12;;;;;;;2.40;1.40;;;2.90;99.90;;;;;;6362709;22;20255;-90
2022/04/13 15:14:52;;;;;;;2.47;1.30;;;2.90;99.90;;;;;;6366727;22;20197;-91
2022/04/13 15:17:26;;;;;;;1.97;1.30;;;3.00;99.90;;;;;;6366750;22;20196;-89
2022/04/13 15:19:59;;;;;;;2.40;1.50;;;3.00;99.90;;;;;;6361902;22;20177;-91
2022/04/13 15:22:31;;;;;;;1.50;1.40;;;2.90;99.90;;;;;;6359866;22;20158;-90
2022/04/13 15:25:10;;;;;;;2.20;1.30;;;3.00;99.90;;;;;;6352711;22;20476;-91
2022/04/13 15:27:45;;;;;;;1.50;1.33;;;3.10;99.90;;;;;;6351843;22;20184;-90
2022/04/13 15:33:01;;;;;;;1.60;1.27;;;3.30;99.90;;;;;;6349809;22;20211;-90
2022/04/13 15:35:34;;;;;;;1.87;1.50;;;3.30;99.90;;;;;;6358540;22;20194;-90
2022/04/13 15:38:07;;;;;;;1.40;1.30;;;3.50;99.90;;;;;;6357498;22;20185;-90
2022/04/13 15:40:40;;;;;;;1.50;1.40;;;3.60;99.90;;;;;;6359338;22;20170;-91
2022/04/13 15:43:19;;;;;;;1.33;1.23;;;3.70;99.90;;;;;;6360003;22;20181;-90
2022/04/13 15:45:53;;;;;;;1.40;1.00;;;3.90;99.90;;;;;;6352602;22;20188;-90
2022/04/13 15:48:26;;;;;;;1.43;1.27;;;4.00;99.90;;;;;;6346807;22;20184;-90
2022/04/13 15:50:58;;;;;;;1.00;0.77;;;4.00;99.90;;;;;;6344187;22;20182;-90
2022/04/13 15:53:29;;;;;;;2.23;1.00;;;4.10;99.90;;;;;;6343886;22;20178;-90
2022/04/13 15:56:03;;;;;;;0.90;0.80;;;4.20;99.90;;;;;;6343938;22;20197;-90
2022/04/13 15:58:37;;;;;;;1.83;0.70;;;4.30;99.90;;;;;;6317664;22;20177;-91
2022/04/13 16:01:11;;;;;;;0.87;0.73;;;4.50;99.90;;;;;;6343086;22;20180;-91
2022/04/13 16:03:44;;;;;;;1.00;0.80;;;4.70;99.90;;;;;;6342965;22;20514;-91
2022/04/13 16:06:16;;;;;;;1.03;0.80;;;4.90;99.90;;;;;;6344178;22;20166;-91
2022/04/13 16:08:47;;;;;;;0.93;0.63;;;4.90;99.90;;;;;;6344404;22;20170;-91
2022/04/13 16:11:19;;;;;;;1.13;0.80;;;5.10;99.90;;;;;;6344364;22;20178;-91
2022/04/13 16:13:52;;;;;;;2.30;0.80;;;5.10;99.90;;;;;;6344236;22;20203;-91
2022/04/13 16:16:23;;;;;;;1.10;0.70;;;5.00;99.90;;;;;;6343895;22;20173;-91
2022/04/13 16:18:55;;;;;;;1.23;0.80;;;4.80;99.90;;;;;;6344455;22;20166;-91
2022/04/13 16:21:27;;;;;;;0.80;0.50;;;4.90;99.90;;;;;;6345195;22;20422;-90
2022/04/13 16:23:58;;;;;;;1.43;0.70;;;5.00;99.90;;;;;;6344167;22;20190;-90
2022/04/13 16:26:30;;;;;;;1.57;0.83;;;5.00;99.90;;;;;;6343563;22;20197;-91
2022/04/13 16:29:04;;;;;;;0.67;0.67;;;5.10;99.90;;;;;;6355905;22;20174;-91